< < Back
Terminal Aerodrome Forecast


Current Version              Previous Versions:   1  2  3  4  5  6  7  8  9  

Terminal Aerodrome Forecast

176
FTUS42 KGSP 071120
TAFHKY
TAF
KHKY 071120Z 0712/0812 32003KT 3SM BR FEW250
     FM071300 30003KT P6SM FEW045
     FM071700 22008KT P6SM FEW060
     FM072300 23003KT P6SM SCT060
     FM081000 00000KT 5SM BR FEW250=

Latest METAR

004
SAUS70 KWBC 072200 RRN
MTRHKY
METAR KHKY 072153Z 20006KT 10SM FEW070 32/16 A3008 RMK AO2 SLP161
T03220156


USA.gov is the U.S. government's official web portal to all federal, state and local government web resources and services.